createdAt,value
2022-11-12T00:00:40.758Z,1.60
2022-11-12T00:03:29.199Z,2.15
2022-11-12T00:06:16.134Z,1.48
2022-11-12T00:09:03.378Z,1.60
2022-11-12T00:11:50.471Z,1.85
2022-11-12T00:14:37.730Z,1.60
2022-11-12T00:17:24.603Z,1.70
2022-11-12T00:20:13.398Z,2.08
2022-11-12T00:23:00.587Z,1.85
2022-11-12T00:25:47.552Z,1.80
2022-11-12T00:28:38.054Z,2.20
2022-11-12T00:31:25.847Z,1.50
2022-11-12T00:34:12.784Z,1.63
2022-11-12T00:37:01.352Z,1.73
2022-11-12T00:39:48.394Z,1.55
2022-11-12T00:42:35.572Z,1.77
2022-11-12T00:45:23.113Z,1.80
2022-11-12T00:48:10.246Z,2.00
2022-11-12T00:51:01.343Z,1.80
2022-11-12T00:53:50.576Z,1.65
2022-11-12T00:56:37.747Z,1.60
2022-11-12T00:59:24.815Z,1.55
2022-11-12T01:02:12.311Z,1.83
2022-11-12T01:04:59.180Z,1.67
2022-11-12T01:07:48.387Z,1.58
2022-11-12T01:10:39.264Z,1.70
2022-11-12T01:13:26.479Z,1.92
2022-11-12T01:16:14.092Z,1.48
2022-11-12T01:19:02.555Z,1.55
2022-11-12T01:21:49.840Z,1.75
2022-11-12T01:24:36.971Z,2.05
2022-11-12T01:27:25.423Z,1.58
2022-11-12T01:30:12.971Z,1.50
2022-11-12T01:32:59.993Z,1.52
2022-11-12T01:35:47.426Z,1.55
2022-11-12T01:38:36.073Z,1.67
2022-11-12T01:41:24.040Z,1.45
2022-11-12T01:44:13.545Z,1.80
2022-11-12T01:47:02.391Z,1.40
2022-11-12T01:49:54.259Z,1.65
2022-11-12T01:52:44.700Z,2.03
2022-11-12T01:55:33.740Z,1.75
2022-11-12T01:58:22.843Z,1.92
2022-11-12T02:01:11.736Z,1.92
2022-11-12T02:03:59.237Z,1.42
2022-11-12T02:06:48.580Z,1.70
2022-11-12T02:09:36.683Z,2.28
2022-11-12T02:12:41.435Z,2.75
2022-11-12T02:15:28.895Z,1.60
2022-11-12T02:18:17.435Z,1.65
2022-11-12T02:21:06.727Z,1.73
2022-11-12T02:24:01.559Z,1.80
2022-11-12T02:26:51.221Z,1.95
2022-11-12T02:29:46.400Z,2.30
2022-11-12T02:32:34.586Z,1.95
2022-11-12T02:35:21.572Z,2.45
2022-11-12T02:38:08.978Z,2.10
2022-11-12T02:40:58.025Z,1.60
2022-11-12T02:43:45.670Z,2.45
2022-11-12T02:46:32.886Z,2.22
2022-11-12T02:49:19.816Z,2.03
2022-11-12T02:52:06.968Z,2.30
2022-11-12T02:54:54.000Z,2.40
2022-11-12T02:57:42.403Z,2.00
2022-11-12T03:00:29.467Z,2.05
2022-11-12T03:03:16.774Z,1.60
2022-11-12T03:06:03.972Z,2.25
2022-11-12T03:08:51.419Z,1.75
2022-11-12T03:11:38.412Z,2.45
2022-11-12T03:14:27.628Z,2.50
2022-11-12T03:17:14.484Z,2.42
2022-11-12T03:20:01.597Z,1.98
2022-11-12T03:22:58.153Z,2.83
2022-11-12T03:25:45.521Z,2.35
2022-11-12T03:28:32.696Z,2.75
2022-11-12T03:31:21.261Z,1.98
2022-11-12T03:34:08.444Z,2.78
2022-11-12T03:36:55.558Z,1.83
2022-11-12T03:39:43.745Z,2.15
2022-11-12T03:42:31.060Z,2.60
2022-11-12T03:45:19.589Z,2.60
2022-11-12T03:48:08.460Z,2.35
2022-11-12T03:50:59.215Z,2.28
2022-11-12T03:53:46.634Z,2.55
2022-11-12T03:56:33.828Z,2.17
2022-11-12T03:59:21.252Z,2.10
2022-11-12T04:02:14.487Z,2.10
2022-11-12T04:05:20.368Z,2.50
2022-11-12T04:08:26.352Z,3.30
2022-11-12T04:11:15.147Z,2.38
2022-11-12T04:14:02.238Z,2.25
2022-11-12T04:17:06.891Z,1.80
2022-11-12T04:20:11.585Z,2.05
2022-11-12T04:23:00.280Z,1.80
2022-11-12T04:26:05.270Z,1.95
2022-11-12T04:29:10.274Z,2.17
2022-11-12T04:31:57.380Z,2.25
2022-11-12T04:34:44.706Z,2.20
2022-11-12T04:37:44.741Z,2.65
2022-11-12T04:40:51.527Z,1.85
2022-11-12T04:43:57.850Z,2.38
2022-11-12T04:46:45.062Z,1.90
2022-11-12T04:49:32.147Z,2.10
2022-11-12T04:52:19.701Z,2.00
2022-11-12T04:55:07.370Z,2.22
2022-11-12T04:58:00.352Z,2.30
2022-11-12T05:00:48.552Z,2.22
2022-11-12T05:03:36.064Z,2.20
2022-11-12T05:06:40.725Z,2.95
2022-11-12T05:09:28.627Z,2.50
2022-11-12T05:12:15.995Z,2.67
2022-11-12T05:15:04.958Z,2.58
2022-11-12T05:17:51.980Z,2.80
2022-11-12T05:20:39.582Z,3.05
2022-11-12T05:23:26.940Z,1.98
2022-11-12T05:26:14.220Z,2.33
2022-11-12T05:29:04.945Z,2.40
2022-11-12T05:31:56.339Z,2.45
2022-11-12T05:34:43.264Z,3.05
2022-11-12T05:37:30.543Z,2.80
2022-11-12T05:40:17.481Z,2.72
2022-11-12T05:43:04.316Z,2.70
2022-11-12T05:45:51.452Z,2.35
2022-11-12T05:48:39.984Z,3.03
2022-11-12T05:51:26.921Z,3.13
2022-11-12T05:54:14.136Z,2.70
2022-11-12T05:57:01.094Z,2.55
2022-11-12T05:59:48.277Z,2.95
2022-11-12T06:02:35.173Z,3.05
2022-11-12T06:05:23.935Z,2.78
2022-11-12T06:08:10.928Z,2.25
2022-11-12T06:10:58.055Z,3.28
2022-11-12T06:13:45.175Z,2.90
2022-11-12T06:16:32.522Z,3.25
2022-11-12T06:19:19.558Z,3.40
2022-11-12T06:22:07.886Z,2.92
2022-11-12T06:24:54.849Z,2.88
2022-11-12T06:27:41.936Z,3.20
2022-11-12T06:30:29.009Z,3.60
2022-11-12T06:33:16.464Z,3.22
2022-11-12T06:36:04.251Z,2.75
2022-11-12T06:38:53.025Z,3.20
2022-11-12T06:41:40.181Z,2.80
2022-11-12T06:44:27.367Z,2.67
2022-11-12T06:47:14.388Z,2.80
2022-11-12T06:50:02.436Z,2.65
2022-11-12T06:52:49.301Z,3.00
2022-11-12T06:55:37.664Z,3.00
2022-11-12T06:58:25.268Z,2.65
2022-11-12T07:01:13.978Z,2.85
2022-11-12T07:04:02.113Z,3.05
2022-11-12T07:06:49.464Z,3.17
2022-11-12T07:09:37.121Z,2.50
2022-11-12T07:12:25.840Z,3.70
2022-11-12T07:15:13.220Z,2.88
2022-11-12T07:18:00.866Z,3.03
2022-11-12T07:20:48.575Z,3.05
2022-11-12T07:23:37.235Z,3.05
2022-11-12T07:26:25.183Z,3.50
2022-11-12T07:29:24.900Z,2.65
2022-11-12T07:32:21.484Z,2.45
2022-11-12T07:35:09.622Z,3.58
2022-11-12T07:37:59.676Z,2.97
2022-11-12T07:40:47.252Z,3.33
2022-11-12T07:43:35.519Z,2.92
2022-11-12T07:46:25.364Z,3.30
2022-11-12T07:49:13.720Z,3.53
2022-11-12T07:52:01.299Z,2.78
2022-11-12T07:54:49.019Z,3.40
2022-11-12T07:57:36.816Z,3.47
2022-11-12T08:00:24.616Z,4.57
2022-11-12T08:03:13.033Z,2.90
2022-11-12T08:06:01.961Z,3.17
2022-11-12T08:08:49.324Z,3.17
2022-11-12T08:11:36.974Z,2.95
2022-11-12T08:14:24.904Z,3.45
2022-11-12T08:17:12.119Z,3.28
2022-11-12T08:20:00.988Z,3.28
2022-11-12T08:22:49.528Z,3.42
2022-11-12T08:25:37.428Z,2.53
2022-11-12T08:28:25.163Z,2.90
2022-11-12T08:31:14.294Z,3.00
2022-11-12T08:34:12.315Z,3.25
2022-11-12T08:37:01.232Z,2.80
2022-11-12T08:39:48.261Z,3.20
2022-11-12T08:42:35.607Z,3.05
2022-11-12T08:45:22.876Z,3.10
2022-11-12T08:48:11.390Z,2.65
2022-11-12T08:50:58.698Z,2.90
2022-11-12T08:53:47.014Z,2.50
2022-11-12T08:56:34.233Z,2.65
2022-11-12T08:59:21.351Z,2.88
2022-11-12T09:02:08.130Z,2.60
2022-11-12T09:04:54.974Z,3.22
2022-11-12T09:07:50.837Z,3.17
2022-11-12T09:10:40.161Z,2.92
2022-11-12T09:13:27.130Z,2.90
2022-11-12T09:16:14.582Z,3.50
2022-11-12T09:19:01.892Z,3.15
2022-11-12T09:21:49.319Z,3.80
2022-11-12T09:24:36.470Z,3.08
2022-11-12T09:27:25.513Z,2.83
2022-11-12T09:30:13.150Z,2.83
2022-11-12T09:33:00.496Z,3.28
2022-11-12T09:35:48.134Z,2.58
2022-11-12T09:38:35.413Z,2.65
2022-11-12T09:41:25.818Z,2.78
2022-11-12T09:44:15.675Z,2.50
2022-11-12T09:47:04.739Z,3.17
2022-11-12T09:49:54.259Z,2.58
2022-11-12T09:52:43.956Z,2.65
2022-11-12T09:55:33.295Z,3.45
2022-11-12T09:58:21.384Z,2.50
2022-11-12T10:01:15.608Z,2.60
2022-11-12T10:04:08.840Z,2.75
2022-11-12T10:07:00.032Z,2.95
2022-11-12T10:09:53.510Z,2.63
2022-11-12T10:12:47.881Z,3.22
2022-11-12T10:15:56.944Z,2.35
2022-11-12T10:18:56.746Z,2.97
2022-11-12T10:21:48.550Z,2.97
2022-11-12T10:24:37.096Z,2.85
2022-11-12T10:27:26.235Z,2.85
2022-11-12T10:30:17.077Z,3.17
2022-11-12T10:33:05.040Z,2.30
2022-11-12T10:35:54.814Z,2.58
2022-11-12T10:38:44.198Z,2.72
2022-11-12T10:41:32.039Z,2.28
2022-11-12T10:44:27.317Z,2.55
2022-11-12T10:47:38.970Z,2.80
2022-11-12T10:50:30.744Z,2.28
2022-11-12T10:53:31.454Z,2.92
2022-11-12T10:56:25.401Z,2.30
2022-11-12T10:59:15.935Z,2.78
2022-11-12T11:02:03.478Z,2.50
2022-11-12T11:04:50.634Z,2.65
2022-11-12T11:07:37.811Z,2.28
2022-11-12T11:10:28.083Z,2.20
2022-11-12T11:13:22.521Z,2.20
2022-11-12T11:16:10.296Z,2.38
2022-11-12T11:18:58.915Z,2.70
2022-11-12T11:21:59.456Z,2.75
2022-11-12T11:24:51.187Z,2.25
2022-11-12T11:27:43.551Z,2.35
2022-11-12T11:30:30.854Z,2.40
2022-11-12T11:33:23.084Z,2.30
2022-11-12T11:36:18.958Z,2.58
2022-11-12T11:39:13.768Z,2.30
2022-11-12T11:42:08.967Z,2.78
2022-11-12T11:45:04.232Z,2.20
2022-11-12T11:48:01.632Z,2.28
2022-11-12T11:50:54.344Z,2.50
2022-11-12T11:53:48.604Z,2.20
2022-11-12T11:56:38.974Z,2.30
2022-11-12T11:59:30.824Z,2.63
2022-11-12T12:02:34.548Z,2.30
2022-11-12T12:05:30.474Z,2.13
2022-11-12T12:08:21.102Z,2.40
2022-11-12T12:11:12.442Z,2.28
2022-11-12T12:14:06.555Z,2.00
2022-11-12T12:16:58.650Z,2.50
2022-11-12T12:19:54.751Z,2.20
2022-11-12T12:22:43.712Z,2.28
2022-11-12T12:25:33.568Z,1.83
2022-11-12T12:28:28.940Z,2.20
2022-11-12T12:31:18.511Z,2.05
2022-11-12T12:34:07.112Z,2.20
2022-11-12T12:36:59.107Z,2.00
2022-11-12T12:39:50.664Z,2.03
2022-11-12T12:42:41.551Z,1.95
2022-11-12T12:45:36.090Z,2.72
2022-11-12T12:48:25.071Z,1.98
2022-11-12T12:51:13.090Z,2.10
2022-11-12T12:54:01.696Z,2.30
2022-11-12T12:56:49.950Z,2.22
2022-11-12T12:59:36.947Z,2.10
2022-11-12T13:02:25.204Z,2.15
2022-11-12T13:05:25.118Z,2.00
2022-11-12T13:08:13.549Z,2.38
2022-11-12T13:11:01.802Z,1.85
2022-11-12T13:13:48.864Z,2.30
2022-11-12T13:16:57.939Z,3.53
2022-11-12T13:19:47.179Z,2.42
2022-11-12T13:22:50.854Z,2.00
2022-11-12T13:25:38.555Z,2.03
2022-11-12T13:28:27.340Z,2.38
2022-11-12T13:31:28.406Z,2.20
2022-11-12T13:34:20.099Z,2.55
2022-11-12T13:37:07.760Z,2.40
2022-11-12T13:39:54.786Z,2.42
2022-11-12T13:42:51.392Z,1.70
2022-11-12T13:45:42.746Z,2.47
2022-11-12T13:48:31.686Z,2.00
2022-11-12T13:51:20.456Z,1.55
2022-11-12T13:54:22.532Z,2.03
2022-11-12T13:57:27.596Z,2.05
2022-11-12T14:00:25.673Z,1.92
2022-11-12T14:03:17.563Z,2.15
2022-11-12T14:06:06.699Z,2.10
2022-11-12T14:09:08.531Z,2.00
2022-11-12T14:12:06.745Z,2.22
2022-11-12T14:15:02.110Z,1.80
2022-11-12T14:17:53.802Z,2.13
2022-11-12T14:20:42.390Z,2.17
2022-11-12T14:23:30.057Z,2.03
2022-11-12T14:26:34.292Z,1.73
2022-11-12T14:29:21.544Z,2.20
2022-11-12T14:32:10.783Z,2.05
2022-11-12T14:34:58.200Z,2.15
2022-11-12T14:37:48.640Z,2.33
2022-11-12T14:40:38.195Z,2.17
2022-11-12T14:43:28.321Z,2.00
2022-11-12T14:46:24.442Z,2.30
2022-11-12T14:49:17.134Z,2.08
2022-11-12T14:52:07.774Z,1.63
2022-11-12T14:54:59.844Z,1.80
2022-11-12T14:57:47.188Z,2.00
2022-11-12T15:00:39.130Z,1.98
2022-11-12T15:03:28.048Z,1.75
2022-11-12T15:06:17.947Z,1.83
2022-11-12T15:09:06.061Z,2.30
2022-11-12T15:11:54.665Z,1.73
2022-11-12T15:14:41.803Z,1.60
2022-11-12T15:17:31.087Z,1.63
2022-11-12T15:20:19.096Z,1.95
2022-11-12T15:23:06.170Z,2.33
2022-11-12T15:26:00.173Z,1.75
2022-11-12T15:29:01.272Z,1.80
2022-11-12T15:31:49.495Z,2.08
2022-11-12T15:34:47.841Z,2.13
2022-11-12T15:37:38.367Z,1.88
2022-11-12T15:40:25.548Z,2.05
2022-11-12T15:43:15.226Z,1.80
2022-11-12T15:46:04.241Z,1.80
2022-11-12T15:48:55.803Z,1.90
2022-11-12T15:51:43.210Z,2.00
2022-11-12T15:54:30.100Z,1.83
2022-11-12T15:57:21.993Z,1.55
2022-11-12T16:00:15.278Z,1.58
2022-11-12T16:03:07.916Z,2.35
2022-11-12T16:05:55.167Z,1.98
2022-11-12T16:08:42.239Z,1.50
2022-11-12T16:11:38.479Z,1.83
2022-11-12T16:14:25.509Z,1.92
2022-11-12T16:17:13.676Z,1.42
2022-11-12T16:20:02.217Z,1.92
2022-11-12T16:22:49.731Z,1.65
2022-11-12T16:25:38.220Z,1.63
2022-11-12T16:28:25.879Z,2.67
2022-11-12T16:31:12.986Z,3.65
2022-11-12T16:34:00.346Z,3.33
2022-11-12T16:36:48.986Z,1.95
2022-11-12T16:39:36.247Z,2.00
2022-11-12T16:42:23.494Z,1.73
2022-11-12T16:45:10.995Z,1.73
2022-11-12T16:47:58.404Z,2.05
2022-11-12T16:50:45.605Z,1.50
2022-11-12T16:53:33.981Z,1.75
2022-11-12T16:56:22.370Z,1.70
2022-11-12T16:59:09.603Z,1.60
2022-11-12T17:01:56.742Z,1.77
2022-11-12T17:04:43.522Z,1.63
2022-11-12T17:07:30.703Z,1.98
2022-11-12T17:10:23.162Z,1.90
2022-11-12T17:13:12.065Z,2.10
2022-11-12T17:15:59.403Z,2.47
2022-11-12T17:18:46.576Z,2.03
2022-11-12T17:21:33.683Z,1.83
2022-11-12T17:24:20.940Z,2.05
2022-11-12T17:27:09.267Z,1.75
2022-11-12T17:29:56.638Z,2.10
2022-11-12T17:32:43.870Z,2.00
2022-11-12T17:35:31.132Z,1.92
2022-11-12T17:38:18.364Z,1.60
2022-11-12T17:41:06.168Z,1.65
2022-11-12T17:43:56.950Z,2.17
2022-11-12T17:46:43.838Z,1.85
2022-11-12T17:49:30.856Z,2.40
2022-11-12T17:52:18.153Z,2.80
2022-11-12T17:55:05.635Z,3.28
2022-11-12T17:57:52.905Z,4.03
2022-11-12T18:00:41.511Z,3.53
2022-11-12T18:03:28.937Z,2.78
2022-11-12T18:06:16.963Z,3.25
2022-11-12T18:09:05.014Z,3.50
2022-11-12T18:11:54.558Z,2.10
2022-11-12T18:14:42.039Z,2.00
2022-11-12T18:17:30.367Z,2.38
2022-11-12T18:20:17.514Z,2.40
2022-11-12T18:23:04.692Z,2.45
2022-11-12T18:25:51.995Z,2.25
2022-11-12T18:28:39.028Z,2.13
2022-11-12T18:31:27.055Z,2.25
2022-11-12T18:34:16.962Z,1.60
2022-11-12T18:37:04.369Z,2.20
2022-11-12T18:39:51.588Z,1.95
2022-11-12T18:42:38.560Z,1.98
2022-11-12T18:45:25.634Z,1.63
2022-11-12T18:48:12.547Z,1.92
2022-11-12T18:51:01.728Z,1.92
2022-11-12T18:53:48.893Z,1.90
2022-11-12T18:56:37.976Z,1.67
2022-11-12T18:59:30.553Z,2.88
2022-11-12T19:02:17.961Z,2.40
2022-11-12T19:05:05.459Z,3.15
2022-11-12T19:07:54.051Z,3.17
2022-11-12T19:10:43.118Z,2.67
2022-11-12T19:13:31.319Z,2.50
2022-11-12T19:16:19.526Z,2.25
2022-11-12T19:19:07.259Z,2.90
2022-11-12T19:21:54.589Z,2.90
2022-11-12T19:24:43.511Z,3.05
2022-11-12T19:27:31.875Z,2.83
2022-11-12T19:30:19.285Z,3.00
2022-11-12T19:33:07.045Z,3.00
2022-11-12T19:35:54.427Z,3.50
2022-11-12T19:38:41.703Z,4.55
2022-11-12T19:41:32.533Z,4.70
2022-11-12T19:44:19.755Z,4.32
2022-11-12T19:47:07.342Z,3.80
2022-11-12T19:49:54.403Z,3.20
2022-11-12T19:52:41.533Z,3.58
2022-11-12T19:55:31.144Z,3.80
2022-11-12T19:58:22.078Z,3.95
2022-11-12T20:01:10.347Z,4.43
2022-11-12T20:03:57.415Z,4.10
2022-11-12T20:06:44.517Z,4.28
2022-11-12T20:09:31.955Z,3.60
2022-11-12T20:12:19.500Z,4.40
2022-11-12T20:15:08.922Z,4.28
2022-11-12T20:17:56.484Z,4.68
2022-11-12T20:20:47.104Z,4.13
2022-11-12T20:23:34.693Z,3.90
2022-11-12T20:26:21.924Z,4.00
2022-11-12T20:29:09.011Z,3.88
2022-11-12T20:31:57.733Z,4.03
2022-11-12T20:34:45.037Z,3.78
2022-11-12T20:37:32.130Z,3.83
2022-11-12T20:40:22.635Z,4.28
2022-11-12T20:43:10.005Z,3.97
2022-11-12T20:45:57.017Z,4.03
2022-11-12T20:48:45.502Z,3.60
2022-11-12T20:51:34.781Z,3.80
2022-11-12T20:54:22.014Z,3.60
2022-11-12T20:57:09.562Z,3.33
2022-11-12T20:59:56.757Z,3.53
2022-11-12T21:02:43.857Z,2.72
2022-11-12T21:05:32.378Z,3.17
2022-11-12T21:08:19.565Z,2.75
2022-11-12T21:11:07.839Z,3.00
2022-11-12T21:13:54.845Z,3.40
2022-11-12T21:16:41.973Z,2.67
2022-11-12T21:19:29.108Z,2.88
2022-11-12T21:22:17.761Z,2.55
2022-11-12T21:25:05.304Z,2.42
2022-11-12T21:27:52.544Z,2.85
2022-11-12T21:30:40.343Z,2.60
2022-11-12T21:33:27.521Z,2.78
2022-11-12T21:36:16.582Z,2.50
2022-11-12T21:39:06.102Z,2.45
2022-11-12T21:41:54.023Z,1.98
2022-11-12T21:44:41.177Z,2.15
2022-11-12T21:47:29.019Z,2.33
2022-11-12T21:50:16.867Z,2.30
2022-11-12T21:53:04.104Z,2.85
2022-11-12T21:55:52.389Z,2.40
2022-11-12T21:58:40.097Z,2.08
2022-11-12T22:01:27.705Z,2.35
2022-11-12T22:04:18.323Z,1.92
2022-11-12T22:07:05.883Z,2.15
2022-11-12T22:09:56.776Z,1.85
2022-11-12T22:13:12.071Z,2.20
2022-11-12T22:15:53.478Z,2.17
2022-11-12T22:18:40.911Z,2.20
2022-11-12T22:21:28.880Z,2.30
2022-11-12T22:24:17.469Z,2.00
2022-11-12T22:27:05.764Z,2.40
2022-11-12T22:29:54.499Z,2.35
2022-11-12T22:32:41.912Z,2.20
2022-11-12T22:35:29.527Z,2.17
2022-11-12T22:38:16.899Z,2.05
2022-11-12T22:41:05.434Z,2.00
2022-11-12T22:43:53.438Z,2.25
2022-11-12T22:46:41.934Z,2.17
2022-11-12T22:49:29.634Z,2.25
2022-11-12T22:52:16.907Z,2.45
2022-11-12T22:55:04.430Z,2.13
2022-11-12T22:57:51.364Z,2.15
2022-11-12T23:00:38.586Z,2.60
2022-11-12T23:03:27.499Z,2.00
2022-11-12T23:06:14.707Z,1.85
2022-11-12T23:09:02.248Z,2.15
2022-11-12T23:11:49.311Z,2.58
2022-11-12T23:14:37.049Z,1.83
2022-11-12T23:17:24.080Z,1.80
2022-11-12T23:20:13.167Z,1.85
2022-11-12T23:23:00.438Z,2.25
2022-11-12T23:25:47.680Z,1.50
2022-11-12T23:28:35.627Z,1.90
2022-11-12T23:31:23.173Z,1.73
2022-11-12T23:34:12.817Z,2.00
2022-11-12T23:37:01.662Z,1.63
2022-11-12T23:39:48.867Z,1.83
2022-11-12T23:42:37.396Z,1.92
2022-11-12T23:45:24.858Z,2.10
2022-11-12T23:48:11.984Z,1.92
2022-11-12T23:51:03.819Z,1.98
2022-11-12T23:53:52.576Z,1.50
2022-11-12T23:56:39.878Z,1.90
2022-11-12T23:59:26.858Z,2.42
